createdAt,value
2023-07-02T00:00:46.878Z,0.80
2023-07-02T00:02:50.004Z,1.20
2023-07-02T00:04:53.240Z,1.00
2023-07-02T00:06:56.105Z,0.93
2023-07-02T00:08:59.518Z,0.90
2023-07-02T00:11:02.390Z,1.03
2023-07-02T00:13:06.849Z,0.87
2023-07-02T00:15:10.300Z,0.90
2023-07-02T00:17:14.207Z,0.90
2023-07-02T00:19:17.760Z,1.00
2023-07-02T00:21:21.521Z,0.80
2023-07-02T00:23:24.343Z,0.90
2023-07-02T00:25:27.170Z,1.00
2023-07-02T00:27:30.040Z,0.80
2023-07-02T00:29:34.622Z,0.97
2023-07-02T00:31:37.732Z,0.73
2023-07-02T00:33:40.630Z,0.83
2023-07-02T00:35:43.514Z,0.83
2023-07-02T00:37:46.868Z,1.00
2023-07-02T00:39:49.731Z,0.80
2023-07-02T00:41:52.628Z,0.73
2023-07-02T00:43:56.484Z,0.77
2023-07-02T00:46:00.680Z,0.80
2023-07-02T00:48:03.587Z,0.90
2023-07-02T00:50:06.942Z,0.80
2023-07-02T00:52:10.187Z,0.80
2023-07-02T00:54:13.020Z,0.80
2023-07-02T00:56:15.870Z,0.97
2023-07-02T00:58:21.996Z,0.80
2023-07-02T01:00:25.274Z,1.03
2023-07-02T01:02:30.803Z,1.00
2023-07-02T01:04:34.147Z,0.80
2023-07-02T01:06:38.252Z,0.80
2023-07-02T01:08:41.476Z,0.73
2023-07-02T01:10:44.305Z,0.87
2023-07-02T01:12:47.106Z,0.90
2023-07-02T01:14:50.954Z,0.80
2023-07-02T01:16:54.537Z,0.80
2023-07-02T01:18:58.675Z,0.73
2023-07-02T01:21:02.853Z,0.87
2023-07-02T01:23:05.766Z,0.90
2023-07-02T01:25:10.402Z,0.80
2023-07-02T01:27:13.447Z,0.90
2023-07-02T01:29:17.455Z,1.00
2023-07-02T01:31:20.376Z,0.90
2023-07-02T01:33:23.560Z,0.83
2023-07-02T01:35:26.492Z,0.80
2023-07-02T01:37:38.682Z,0.67
2023-07-02T01:39:41.647Z,0.80
2023-07-02T01:41:47.134Z,0.80
2023-07-02T01:43:50.031Z,0.80
2023-07-02T01:45:52.918Z,1.00
2023-07-02T01:47:55.836Z,0.90
2023-07-02T01:49:59.223Z,1.00
2023-07-02T01:52:02.313Z,0.90
2023-07-02T01:54:06.904Z,1.07
2023-07-02T01:56:09.790Z,0.77
2023-07-02T01:58:13.097Z,1.00
2023-07-02T02:00:17.040Z,0.97
2023-07-02T02:02:19.960Z,0.80
2023-07-02T02:04:22.882Z,1.00
2023-07-02T02:06:26.109Z,0.80
2023-07-02T02:08:28.938Z,0.80
2023-07-02T02:10:33.040Z,1.10
2023-07-02T02:12:35.864Z,1.00
2023-07-02T02:14:39.156Z,0.90
2023-07-02T02:16:42.185Z,0.90
2023-07-02T02:18:45.025Z,0.93
2023-07-02T02:20:48.057Z,0.93
2023-07-02T02:22:51.613Z,1.00
2023-07-02T02:24:54.448Z,0.80
2023-07-02T02:26:58.555Z,0.90
2023-07-02T02:29:01.370Z,0.87
2023-07-02T02:31:04.591Z,0.80
2023-07-02T02:33:07.500Z,0.80
2023-07-02T02:35:10.612Z,1.20
2023-07-02T02:37:13.512Z,0.80
2023-07-02T02:39:16.783Z,1.10
2023-07-02T02:41:19.638Z,0.93
2023-07-02T02:43:23.882Z,1.00
2023-07-02T02:45:27.186Z,0.87
2023-07-02T02:47:30.042Z,1.07
2023-07-02T02:49:32.864Z,0.80
2023-07-02T02:51:35.700Z,0.90
2023-07-02T02:53:38.856Z,0.90
2023-07-02T02:55:41.693Z,1.03
2023-07-02T02:57:45.095Z,0.90
2023-07-02T02:59:49.226Z,1.03
2023-07-02T03:01:52.687Z,1.00
2023-07-02T03:03:55.804Z,1.10
2023-07-02T03:05:58.763Z,0.90
2023-07-02T03:08:01.951Z,0.87
2023-07-02T03:10:05.415Z,0.77
2023-07-02T03:12:08.746Z,1.00
2023-07-02T03:14:11.622Z,1.00
2023-07-02T03:16:16.282Z,1.00
2023-07-02T03:18:19.107Z,0.90
2023-07-02T03:20:22.192Z,1.00
2023-07-02T03:22:25.130Z,0.80
2023-07-02T03:24:28.400Z,0.90
2023-07-02T03:26:30.285Z,1.00
2023-07-02T03:28:35.206Z,1.00
2023-07-02T03:30:38.119Z,0.90
2023-07-02T03:32:42.572Z,1.00
2023-07-02T03:34:45.406Z,1.50
2023-07-02T03:36:48.280Z,0.90
2023-07-02T03:38:51.066Z,0.80
2023-07-02T03:40:54.216Z,0.93
2023-07-02T03:42:57.042Z,1.27
2023-07-02T03:44:59.846Z,1.20
2023-07-02T03:47:02.696Z,0.90
2023-07-02T03:49:07.337Z,0.97
2023-07-02T03:51:10.221Z,0.90
2023-07-02T03:53:13.041Z,0.93
2023-07-02T03:55:16.060Z,1.10
2023-07-02T03:57:19.450Z,1.03
2023-07-02T03:59:24.818Z,0.90
2023-07-02T04:01:27.640Z,1.00
2023-07-02T04:03:30.470Z,1.10
2023-07-02T04:05:35.055Z,1.20
2023-07-02T04:07:37.875Z,0.90
2023-07-02T04:09:40.711Z,1.07
2023-07-02T04:11:43.535Z,0.97
2023-07-02T04:13:46.429Z,1.30
2023-07-02T04:15:49.362Z,1.00
2023-07-02T04:17:52.197Z,1.10
2023-07-02T04:19:56.092Z,1.10
2023-07-02T04:22:00.334Z,1.20
2023-07-02T04:24:03.172Z,1.17
2023-07-02T04:26:24.233Z,0.80
2023-07-02T04:28:29.600Z,1.03
2023-07-02T04:30:32.442Z,1.10
2023-07-02T04:32:35.282Z,0.90
2023-07-02T04:34:38.441Z,0.90
2023-07-02T04:36:41.298Z,0.97
2023-07-02T04:38:45.402Z,1.00
2023-07-02T04:40:48.457Z,1.13
2023-07-02T04:42:58.557Z,1.07
2023-07-02T04:45:04.464Z,1.20
2023-07-02T04:47:07.453Z,0.93
2023-07-02T04:49:10.259Z,0.90
2023-07-02T04:51:13.431Z,1.20
2023-07-02T04:53:16.291Z,1.13
2023-07-02T04:55:20.506Z,1.00
2023-07-02T04:57:23.283Z,1.10
2023-07-02T04:59:26.798Z,1.30
2023-07-02T05:01:29.978Z,0.97
2023-07-02T05:03:32.787Z,1.10
2023-07-02T05:05:35.636Z,0.93
2023-07-02T05:07:38.890Z,1.00
2023-07-02T05:09:41.737Z,1.07
2023-07-02T05:11:45.827Z,1.10
2023-07-02T05:13:48.638Z,1.00
2023-07-02T05:15:51.909Z,0.87
2023-07-02T05:17:54.777Z,1.10
2023-07-02T05:19:57.607Z,1.10
2023-07-02T05:22:00.429Z,1.00
2023-07-02T05:24:03.590Z,1.07
2023-07-02T05:26:06.506Z,1.10
2023-07-02T05:28:10.603Z,1.10
2023-07-02T05:30:14.264Z,1.13
2023-07-02T05:32:17.561Z,1.00
2023-07-02T05:34:20.380Z,0.90
2023-07-02T05:36:23.242Z,1.10
2023-07-02T05:38:26.404Z,0.90
2023-07-02T05:40:29.668Z,1.00
2023-07-02T05:42:32.544Z,1.00
2023-07-02T05:44:36.686Z,1.00
2023-07-02T05:46:40.655Z,1.03
2023-07-02T05:48:44.049Z,1.07
2023-07-02T05:50:47.100Z,1.00
2023-07-02T05:52:50.130Z,1.20
2023-07-02T05:54:52.937Z,0.90
2023-07-02T05:56:56.186Z,1.10
2023-07-02T05:58:59.451Z,1.03
2023-07-02T06:01:03.577Z,1.20
2023-07-02T06:03:06.547Z,0.93
2023-07-02T06:05:10.504Z,0.90
2023-07-02T06:07:13.459Z,1.10
2023-07-02T06:09:16.338Z,1.03
2023-07-02T06:11:19.129Z,1.00
2023-07-02T06:13:22.319Z,1.13
2023-07-02T06:15:25.274Z,1.27
2023-07-02T06:17:33.091Z,0.97
2023-07-02T06:19:38.483Z,1.30
2023-07-02T06:21:41.614Z,0.90
2023-07-02T06:23:44.666Z,1.10
2023-07-02T06:25:47.662Z,1.10
2023-07-02T06:27:50.727Z,1.10
2023-07-02T06:29:53.988Z,1.30
2023-07-02T06:31:57.280Z,1.03
2023-07-02T06:34:01.557Z,1.13
2023-07-02T06:36:04.512Z,1.20
2023-07-02T06:38:07.374Z,1.17
2023-07-02T06:40:10.633Z,1.40
2023-07-02T06:42:13.460Z,1.00
2023-07-02T06:44:16.721Z,1.23
2023-07-02T06:46:19.591Z,1.00
2023-07-02T06:48:22.957Z,1.10
2023-07-02T06:50:27.626Z,1.20
2023-07-02T06:52:30.448Z,1.40
2023-07-02T06:54:33.308Z,1.13
2023-07-02T06:56:36.164Z,1.20
2023-07-02T06:58:43.798Z,1.00
2023-07-02T07:00:46.671Z,1.30
2023-07-02T07:02:49.685Z,1.07
2023-07-02T07:04:52.994Z,1.50
2023-07-02T07:06:59.609Z,1.10
2023-07-02T07:09:02.569Z,1.50
2023-07-02T07:11:05.812Z,1.43
2023-07-02T07:13:11.637Z,1.27
2023-07-02T07:15:14.888Z,1.23
2023-07-02T07:17:17.784Z,1.30
2023-07-02T07:19:20.733Z,1.10
2023-07-02T07:21:24.394Z,1.37
2023-07-02T07:23:28.533Z,1.33
2023-07-02T07:25:31.382Z,1.33
2023-07-02T07:27:34.139Z,1.60
2023-07-02T07:29:37.792Z,1.23
2023-07-02T07:31:40.654Z,1.40
2023-07-02T07:33:43.485Z,1.20
2023-07-02T07:35:46.318Z,1.27
2023-07-02T07:37:49.583Z,1.33
2023-07-02T07:39:53.793Z,1.37
2023-07-02T07:41:56.624Z,1.70
2023-07-02T07:43:59.448Z,1.90
2023-07-02T07:46:02.324Z,1.60
2023-07-02T07:48:05.722Z,1.53
2023-07-02T07:50:11.835Z,2.20
2023-07-02T07:52:15.777Z,2.03
2023-07-02T07:54:22.692Z,2.80
2023-07-02T07:56:27.191Z,2.63
2023-07-02T07:58:30.007Z,3.23
2023-07-02T08:00:33.763Z,2.90
2023-07-02T08:02:36.684Z,2.83
2023-07-02T08:04:39.791Z,2.50
2023-07-02T08:06:45.486Z,2.70
2023-07-02T08:08:50.075Z,2.77
2023-07-02T08:10:53.064Z,2.63
2023-07-02T08:12:57.357Z,2.67
2023-07-02T08:15:00.857Z,2.70
2023-07-02T08:17:03.711Z,2.67
2023-07-02T08:19:06.660Z,2.60
2023-07-02T08:21:09.683Z,2.40
2023-07-02T08:23:13.110Z,2.40
2023-07-02T08:25:16.162Z,2.73
2023-07-02T08:27:20.688Z,2.90
2023-07-02T08:29:25.688Z,2.77
2023-07-02T08:31:29.036Z,2.50
2023-07-02T08:33:31.880Z,2.90
2023-07-02T08:35:37.726Z,2.30
2023-07-02T08:37:44.186Z,2.43
2023-07-02T08:39:47.227Z,2.73
2023-07-02T08:41:50.833Z,2.83
2023-07-02T08:43:56.831Z,2.27
2023-07-02T08:46:01.489Z,2.80
2023-07-02T08:48:04.421Z,2.90
2023-07-02T08:50:07.994Z,3.07
2023-07-02T08:52:11.549Z,2.50
2023-07-02T08:54:15.445Z,3.30
2023-07-02T08:56:18.831Z,2.97
2023-07-02T08:58:21.631Z,2.80
2023-07-02T09:00:25.012Z,3.03
2023-07-02T09:02:35.661Z,2.90
2023-07-02T09:04:38.517Z,3.63
2023-07-02T09:06:41.364Z,3.17
2023-07-02T09:08:44.506Z,2.60
2023-07-02T09:10:48.960Z,3.40
2023-07-02T09:12:52.336Z,3.10
2023-07-02T09:14:57.027Z,3.20
2023-07-02T09:17:04.873Z,3.17
2023-07-02T09:19:09.752Z,3.13
2023-07-02T09:21:13.023Z,2.97
2023-07-02T09:23:15.950Z,2.63
2023-07-02T09:25:19.418Z,3.00
2023-07-02T09:27:22.815Z,2.83
2023-07-02T09:29:26.398Z,3.30
2023-07-02T09:31:30.036Z,3.03
2023-07-02T09:33:34.009Z,3.13
2023-07-02T09:35:39.212Z,2.53
2023-07-02T09:37:45.430Z,3.40
2023-07-02T09:39:52.166Z,3.10
2023-07-02T09:41:55.218Z,2.80
2023-07-02T09:43:58.127Z,2.80
2023-07-02T09:46:01.834Z,3.50
2023-07-02T09:48:05.547Z,3.07
2023-07-02T09:50:09.315Z,3.13
2023-07-02T09:52:14.208Z,3.27
2023-07-02T09:54:17.204Z,3.00
2023-07-02T09:56:22.613Z,3.23
2023-07-02T09:58:25.435Z,2.90
2023-07-02T10:00:28.659Z,3.20
2023-07-02T10:02:32.797Z,2.90
2023-07-02T10:04:42.640Z,3.07
2023-07-02T10:06:48.820Z,2.93
2023-07-02T10:08:57.037Z,3.60
2023-07-02T10:11:11.921Z,3.00
2023-07-02T10:13:15.002Z,3.10
2023-07-02T10:15:26.606Z,3.40
2023-07-02T10:17:31.820Z,3.10
2023-07-02T10:19:35.264Z,3.20
2023-07-02T10:21:39.161Z,3.30
2023-07-02T10:23:42.544Z,3.37
2023-07-02T10:25:47.436Z,3.50
2023-07-02T10:27:50.622Z,3.50
2023-07-02T10:29:54.510Z,3.57
2023-07-02T10:31:59.273Z,3.30
2023-07-02T10:34:02.670Z,3.80
2023-07-02T10:36:08.577Z,3.80
2023-07-02T10:38:18.231Z,3.30
2023-07-02T10:40:24.828Z,3.73
2023-07-02T10:42:29.002Z,4.73
2023-07-02T10:44:34.345Z,3.50
2023-07-02T10:46:38.449Z,3.90
2023-07-02T10:48:45.095Z,4.07
2023-07-02T10:50:50.739Z,4.00
2023-07-02T10:52:55.685Z,3.70
2023-07-02T10:54:58.600Z,3.83
2023-07-02T10:57:01.673Z,3.90
2023-07-02T10:59:06.815Z,4.40
2023-07-02T11:01:12.597Z,4.17
2023-07-02T11:03:20.811Z,4.80
2023-07-02T11:05:25.105Z,3.87
2023-07-02T11:07:29.822Z,3.63
2023-07-02T11:09:34.048Z,3.83
2023-07-02T11:11:37.934Z,4.20
2023-07-02T11:13:47.026Z,3.80
2023-07-02T11:15:51.475Z,3.90
2023-07-02T11:17:55.127Z,4.40
2023-07-02T11:19:58.550Z,4.57
2023-07-02T11:22:03.452Z,4.07
2023-07-02T11:24:07.665Z,3.80
2023-07-02T11:26:13.553Z,4.57
2023-07-02T11:28:16.998Z,4.93
2023-07-02T11:30:23.073Z,4.40
2023-07-02T11:32:31.505Z,4.60
2023-07-02T11:34:34.365Z,4.73
2023-07-02T11:36:39.566Z,4.43
2023-07-02T11:38:42.630Z,4.13
2023-07-02T11:40:48.102Z,4.57
2023-07-02T11:42:52.294Z,4.43
2023-07-02T11:44:56.356Z,5.43
2023-07-02T11:47:00.381Z,4.50
2023-07-02T11:49:05.421Z,4.70
2023-07-02T11:51:09.347Z,5.50
2023-07-02T11:53:15.971Z,4.27
2023-07-02T11:55:19.570Z,5.00
2023-07-02T11:57:24.989Z,4.97
2023-07-02T11:59:28.046Z,5.93
2023-07-02T12:01:31.258Z,4.83
2023-07-02T12:03:34.230Z,5.20
2023-07-02T12:05:38.798Z,5.90
2023-07-02T12:07:41.683Z,6.63
2023-07-02T12:09:44.818Z,6.37
2023-07-02T12:11:47.652Z,6.57
2023-07-02T12:13:57.964Z,6.60
2023-07-02T12:16:01.438Z,7.87
2023-07-02T12:18:05.086Z,8.60
2023-07-02T12:20:12.704Z,7.07
2023-07-02T12:22:18.940Z,8.23
2023-07-02T12:24:21.904Z,8.27
2023-07-02T12:26:24.756Z,7.83
2023-07-02T12:28:27.602Z,7.90
2023-07-02T12:30:30.894Z,6.83
2023-07-02T12:32:33.699Z,7.60
2023-07-02T12:34:36.554Z,8.07
2023-07-02T12:36:39.678Z,7.37
2023-07-02T12:38:43.822Z,7.70
2023-07-02T12:40:46.790Z,6.93
2023-07-02T12:42:51.526Z,8.63
2023-07-02T12:44:54.337Z,8.10
2023-07-02T12:46:57.221Z,7.50
2023-07-02T12:49:00.229Z,7.90
2023-07-02T12:51:03.355Z,7.57
2023-07-02T12:53:06.250Z,7.97
2023-07-02T12:55:10.714Z,8.10
2023-07-02T12:57:14.088Z,8.00
2023-07-02T12:59:17.188Z,8.00
2023-07-02T13:01:20.319Z,8.27
2023-07-02T13:03:24.369Z,7.40
2023-07-02T13:05:27.288Z,7.07
2023-07-02T13:07:31.391Z,6.97
2023-07-02T13:09:34.207Z,7.50
2023-07-02T13:11:39.410Z,8.13
2023-07-02T13:13:42.376Z,7.60
2023-07-02T13:15:45.251Z,6.90
2023-07-02T13:17:48.089Z,7.30
2023-07-02T13:19:51.099Z,7.33
2023-07-02T13:21:53.913Z,7.40
2023-07-02T13:23:56.708Z,7.70
2023-07-02T13:25:59.540Z,7.07
2023-07-02T13:28:14.188Z,7.73
2023-07-02T13:30:17.159Z,7.70
2023-07-02T13:32:19.986Z,6.90
2023-07-02T13:34:25.581Z,7.63
2023-07-02T13:36:31.950Z,7.30
2023-07-02T13:38:35.010Z,6.77
2023-07-02T13:40:37.828Z,7.53
2023-07-02T13:42:41.047Z,7.40
2023-07-02T13:44:45.192Z,7.70
2023-07-02T13:46:48.146Z,7.33
2023-07-02T13:48:50.996Z,7.97
2023-07-02T13:50:55.008Z,7.53
2023-07-02T13:52:57.817Z,6.87
2023-07-02T13:55:01.361Z,6.70
2023-07-02T13:57:05.435Z,6.77
2023-07-02T13:59:09.532Z,7.30
2023-07-02T14:01:12.310Z,7.23
2023-07-02T14:03:16.060Z,7.07
2023-07-02T14:05:19.036Z,7.23
2023-07-02T14:07:21.840Z,7.63
2023-07-02T14:09:24.873Z,7.47
2023-07-02T14:11:28.964Z,7.60
2023-07-02T14:13:31.850Z,7.10
2023-07-02T14:15:35.947Z,7.23
2023-07-02T14:17:38.880Z,7.30
2023-07-02T14:19:41.687Z,7.50
2023-07-02T14:21:47.892Z,7.07
2023-07-02T14:23:51.107Z,7.63
2023-07-02T14:25:54.283Z,7.30
2023-07-02T14:27:57.357Z,7.00
2023-07-02T14:30:02.008Z,7.90
2023-07-02T14:32:07.111Z,7.50
2023-07-02T14:34:09.932Z,7.60
2023-07-02T14:36:13.274Z,6.80
2023-07-02T14:38:19.144Z,7.40
2023-07-02T14:40:22.178Z,7.07
2023-07-02T14:42:25.555Z,7.80
2023-07-02T14:44:28.716Z,7.10
2023-07-02T14:46:31.825Z,7.07
2023-07-02T14:48:39.840Z,7.37
2023-07-02T14:50:46.056Z,8.00
2023-07-02T14:52:48.885Z,7.20
2023-07-02T14:54:51.882Z,7.90
2023-07-02T14:56:55.136Z,7.80
2023-07-02T14:58:58.278Z,7.90
2023-07-02T15:01:01.273Z,7.50
2023-07-02T15:03:04.480Z,7.80
2023-07-02T15:05:09.784Z,7.77
2023-07-02T15:07:13.063Z,7.77
2023-07-02T15:09:15.809Z,8.00
2023-07-02T15:11:19.820Z,7.90
2023-07-02T15:13:25.136Z,7.70
2023-07-02T15:15:36.162Z,7.40
2023-07-02T15:17:39.058Z,7.00
2023-07-02T15:19:42.166Z,7.20
2023-07-02T15:21:46.815Z,7.97
2023-07-02T15:23:50.027Z,8.63
2023-07-02T15:25:53.332Z,8.17
2023-07-02T15:27:56.598Z,9.10
2023-07-02T15:29:59.821Z,7.53
2023-07-02T15:32:02.531Z,8.10
2023-07-02T15:34:05.265Z,8.07
2023-07-02T15:36:10.299Z,7.87
2023-07-02T15:38:14.357Z,7.43
2023-07-02T15:40:17.121Z,7.60
2023-07-02T15:42:20.430Z,8.07
2023-07-02T15:44:23.265Z,7.40
2023-07-02T15:46:26.158Z,8.00
2023-07-02T15:48:28.944Z,7.60
2023-07-02T15:50:32.102Z,8.53
2023-07-02T15:52:35.520Z,7.93
2023-07-02T15:54:39.592Z,8.10
2023-07-02T15:56:42.808Z,7.87
2023-07-02T15:58:45.771Z,7.60
2023-07-02T16:00:50.132Z,7.90
2023-07-02T16:02:53.828Z,7.73
2023-07-02T16:04:58.676Z,6.70
2023-07-02T16:07:02.598Z,7.20
2023-07-02T16:09:06.956Z,7.70
2023-07-02T16:11:11.637Z,7.70
2023-07-02T16:13:14.426Z,7.17
2023-07-02T16:15:17.309Z,8.10
2023-07-02T16:17:20.530Z,7.03
2023-07-02T16:19:24.132Z,8.30
2023-07-02T16:21:27.978Z,6.90
2023-07-02T16:23:31.355Z,8.03
2023-07-02T16:25:34.423Z,7.30
2023-07-02T16:27:38.553Z,7.87
2023-07-02T18:59:39.281Z,7.83
2023-07-02T19:01:43.349Z,7.70
2023-07-02T19:03:47.251Z,7.30
2023-07-02T19:05:50.915Z,7.13
2023-07-02T19:07:53.992Z,8.07
2023-07-02T19:09:57.003Z,7.67
2023-07-02T19:12:02.945Z,8.13
2023-07-02T19:14:06.029Z,8.13
2023-07-02T19:16:10.114Z,7.50
2023-07-02T19:18:12.969Z,8.07
2023-07-02T19:20:17.016Z,7.37
2023-07-02T19:22:21.025Z,7.30
2023-07-02T19:24:23.819Z,8.13
2023-07-02T19:26:26.599Z,8.20
2023-07-02T19:28:29.813Z,8.07
2023-07-02T19:30:33.899Z,7.53
2023-07-02T19:32:38.688Z,8.77
2023-07-02T19:34:44.940Z,7.80
2023-07-02T19:36:47.880Z,8.07
2023-07-02T19:38:50.669Z,7.80
2023-07-02T19:40:55.499Z,7.97
2023-07-02T19:42:59.000Z,7.77
2023-07-02T19:45:01.950Z,7.87
2023-07-02T19:47:05.221Z,8.07
2023-07-02T19:49:11.016Z,7.40
2023-07-02T19:51:13.790Z,7.40
2023-07-02T19:53:17.329Z,8.90
2023-07-02T19:55:20.346Z,7.57
2023-07-02T19:57:23.272Z,7.97
2023-07-02T19:59:26.118Z,8.33
2023-07-02T20:01:29.444Z,7.90
2023-07-02T20:03:33.900Z,8.20
2023-07-02T20:05:38.221Z,8.20
2023-07-02T20:07:41.172Z,7.40
2023-07-02T20:09:43.988Z,7.67
2023-07-02T20:11:47.129Z,7.70
2023-07-02T20:13:53.730Z,7.60
2023-07-02T20:15:58.012Z,8.43
2023-07-02T20:18:01.201Z,8.40
2023-07-02T20:20:05.283Z,8.37
2023-07-02T20:22:10.516Z,8.67
2023-07-02T20:24:13.816Z,7.90
2023-07-02T20:26:16.667Z,7.57
2023-07-02T20:28:19.452Z,7.97
2023-07-02T20:30:22.232Z,9.10
2023-07-02T20:32:25.761Z,8.00
2023-07-02T20:34:29.890Z,7.90
2023-07-02T20:36:33.199Z,7.83
2023-07-02T20:38:37.785Z,7.67
2023-07-02T20:40:42.953Z,7.90
2023-07-02T20:42:46.611Z,8.13
2023-07-02T20:44:51.587Z,7.40
2023-07-02T20:46:54.529Z,8.60
2023-07-02T20:48:58.322Z,7.70
2023-07-02T20:51:04.050Z,8.10
2023-07-02T20:53:09.816Z,8.33
2023-07-02T20:55:14.088Z,7.47
2023-07-02T20:57:17.906Z,7.70
2023-07-02T20:59:21.020Z,8.20
2023-07-02T21:01:24.869Z,7.83
2023-07-02T21:03:28.557Z,8.03
2023-07-02T21:05:31.920Z,7.20
2023-07-02T21:07:34.753Z,8.67
2023-07-02T21:09:38.579Z,8.30
2023-07-02T21:11:43.120Z,8.50
2023-07-02T21:13:46.490Z,7.90
2023-07-02T21:15:55.680Z,7.50
2023-07-02T21:17:58.789Z,8.37
2023-07-02T21:20:02.165Z,7.40
2023-07-02T21:22:05.284Z,8.00
2023-07-02T21:24:09.256Z,7.43
2023-07-02T21:26:13.235Z,7.60
2023-07-02T21:28:21.165Z,8.37
2023-07-02T21:30:26.433Z,7.33
2023-07-02T21:32:29.356Z,8.30
2023-07-02T21:34:35.001Z,8.00
2023-07-02T21:36:37.773Z,7.63
2023-07-02T21:38:41.583Z,8.80
2023-07-02T21:40:44.473Z,8.00
2023-07-02T21:42:47.245Z,8.13
2023-07-02T21:44:51.997Z,7.80
2023-07-02T21:46:55.433Z,8.37
2023-07-02T21:49:01.637Z,7.20
2023-07-02T21:51:04.589Z,8.30
2023-07-02T21:53:07.505Z,7.83
2023-07-02T21:55:10.476Z,7.40
2023-07-02T21:57:14.002Z,9.00
2023-07-02T21:59:25.739Z,7.87
2023-07-02T22:01:30.951Z,7.83
2023-07-02T22:03:33.805Z,7.50
2023-07-02T22:05:37.182Z,7.10
2023-07-02T22:07:40.281Z,6.87
2023-07-02T22:09:43.109Z,7.53
2023-07-02T22:11:45.863Z,7.73
2023-07-02T22:13:49.226Z,8.60
2023-07-02T22:15:52.828Z,7.83
2023-07-02T22:18:02.992Z,7.73
2023-07-02T22:20:19.947Z,7.33
2023-07-02T22:22:23.466Z,7.20
2023-07-02T22:24:26.236Z,7.53
2023-07-02T22:26:30.311Z,7.80
2023-07-02T22:28:33.212Z,7.70
2023-07-02T22:30:36.036Z,7.17
2023-07-02T22:32:39.461Z,7.67
2023-07-02T22:34:44.403Z,6.97
2023-07-02T22:36:47.612Z,7.90
2023-07-02T22:38:50.421Z,7.50
2023-07-02T22:40:53.873Z,7.07
2023-07-02T22:42:57.224Z,7.77
2023-07-02T22:45:00.061Z,8.60
2023-07-02T22:47:03.876Z,7.90
2023-07-02T22:49:07.167Z,7.43
2023-07-02T22:51:11.267Z,7.70
2023-07-02T22:53:14.042Z,7.87
2023-07-02T22:55:16.879Z,7.70
2023-07-02T22:57:20.100Z,7.30
2023-07-02T22:59:22.992Z,7.43
2023-07-02T23:01:25.991Z,7.20
2023-07-02T23:03:28.859Z,7.20
2023-07-02T23:05:33.542Z,7.70
2023-07-02T23:07:38.530Z,7.47
2023-07-02T23:09:41.290Z,7.53
2023-07-02T23:11:44.331Z,7.40
2023-07-02T23:13:47.493Z,7.60
2023-07-02T23:15:50.741Z,7.50
2023-07-02T23:17:54.720Z,7.23
2023-07-02T23:19:57.615Z,8.00
2023-07-02T23:22:02.734Z,7.00
2023-07-02T23:24:07.486Z,7.93
2023-07-02T23:26:19.028Z,7.40
2023-07-02T23:28:22.465Z,7.57
2023-07-02T23:30:28.402Z,7.13
2023-07-02T23:32:31.438Z,6.97
2023-07-02T23:34:39.999Z,7.60
2023-07-02T23:36:45.449Z,7.33
2023-07-02T23:38:48.758Z,7.60
2023-07-02T23:40:52.856Z,7.33
2023-07-02T23:42:55.739Z,6.70
2023-07-02T23:44:58.718Z,7.43
2023-07-02T23:47:02.091Z,7.80
2023-07-02T23:49:05.083Z,7.23
2023-07-02T23:51:07.849Z,7.83
2023-07-02T23:53:10.805Z,7.67
2023-07-02T23:55:14.097Z,7.10
2023-07-02T23:57:18.174Z,7.00
2023-07-02T23:59:21.060Z,7.43
